sensor_id;sensor_type;location;lat;lon;timestamp;pressure;altitude;pressure_sealevel;temperature;humidity
36748;BME280;22716;51.556;5.080;2023-01-30T00:01:30;101137.41;;;4.83;100.00
36748;BME280;22716;51.556;5.080;2023-01-30T00:04:00;101140.03;;;4.84;100.00
36748;BME280;22716;51.556;5.080;2023-01-30T00:06:28;101150.44;;;4.87;100.00
36748;BME280;22716;51.556;5.080;2023-01-30T00:08:57;101147.84;;;4.87;100.00
36748;BME280;22716;51.556;5.080;2023-01-30T00:11:29;101142.75;;;4.93;100.00
36748;BME280;22716;51.556;5.080;2023-01-30T00:13:58;101117.69;;;4.94;100.00
36748;BME280;22716;51.556;5.080;2023-01-30T00:16:27;101127.22;;;4.96;100.00
36748;BME280;22716;51.556;5.080;2023-01-30T00:18:56;101128.16;;;5.00;100.00
36748;BME280;22716;51.556;5.080;2023-01-30T00:21:25;101136.00;;;5.01;100.00
36748;BME280;22716;51.556;5.080;2023-01-30T00:23:54;101134.28;;;5.03;100.00
36748;BME280;22716;51.556;5.080;2023-01-30T00:26:24;101118.66;;;5.00;100.00
36748;BME280;22716;51.556;5.080;2023-01-30T00:28:55;101131.75;;;5.06;100.00
36748;BME280;22716;51.556;5.080;2023-01-30T00:31:24;101117.88;;;5.06;100.00
36748;BME280;22716;51.556;5.080;2023-01-30T00:33:53;101093.63;;;5.04;100.00
36748;BME280;22716;51.556;5.080;2023-01-30T00:36:22;101112.81;;;5.14;100.00
36748;BME280;22716;51.556;5.080;2023-01-30T00:38:50;101083.09;;;4.96;100.00
36748;BME280;22716;51.556;5.080;2023-01-30T00:41:19;101104.19;;;5.16;100.00
36748;BME280;22716;51.556;5.080;2023-01-30T00:43:47;101105.88;;;5.13;100.00
36748;BME280;22716;51.556;5.080;2023-01-30T00:46:32;101115.59;;;5.26;100.00
36748;BME280;22716;51.556;5.080;2023-01-30T00:49:14;101113.88;;;5.26;100.00
36748;BME280;22716;51.556;5.080;2023-01-30T00:51:43;101117.38;;;5.30;100.00
36748;BME280;22716;51.556;5.080;2023-01-30T00:54:12;101113.13;;;5.33;100.00
36748;BME280;22716;51.556;5.080;2023-01-30T00:56:41;101114.88;;;5.36;100.00
36748;BME280;22716;51.556;5.080;2023-01-30T00:59:09;101108.03;;;5.41;100.00
36748;BME280;22716;51.556;5.080;2023-01-30T01:01:41;101098.53;;;5.43;100.00
36748;BME280;22716;51.556;5.080;2023-01-30T01:04:10;101115.06;;;5.48;100.00
36748;BME280;22716;51.556;5.080;2023-01-30T01:06:39;101054.06;;;5.22;100.00
36748;BME280;22716;51.556;5.080;2023-01-30T01:09:07;101101.25;;;5.50;100.00
36748;BME280;22716;51.556;5.080;2023-01-30T01:11:36;101094.41;;;5.57;100.00
36748;BME280;22716;51.556;5.080;2023-01-30T01:14:05;101093.59;;;5.61;100.00
36748;BME280;22716;51.556;5.080;2023-01-30T01:16:34;101096.25;;;5.65;100.00
36748;BME280;22716;51.556;5.080;2023-01-30T01:19:05;101098.91;;;5.70;100.00
36748;BME280;22716;51.556;5.080;2023-01-30T01:21:34;101085.06;;;5.71;100.00
36748;BME280;22716;51.556;5.080;2023-01-30T01:24:04;101080.72;;;5.70;100.00
36748;BME280;22716;51.556;5.080;2023-01-30T01:26:32;101080.78;;;5.75;100.00
36748;BME280;22716;51.556;5.080;2023-01-30T01:29:01;101070.38;;;5.76;100.00
36748;BME280;22716;51.556;5.080;2023-01-30T01:31:30;101077.38;;;5.80;100.00
36748;BME280;22716;51.556;5.080;2023-01-30T01:33:59;101080.03;;;5.83;100.00
36748;BME280;22716;51.556;5.080;2023-01-30T01:36:30;101080.97;;;5.87;100.00
36748;BME280;22716;51.556;5.080;2023-01-30T01:38:59;101074.94;;;5.89;100.00
36748;BME280;22716;51.556;5.080;2023-01-30T01:41:28;101074.97;;;5.92;100.00
36748;BME280;22716;51.556;5.080;2023-01-30T01:44:03;101062.00;;;5.97;100.00
36748;BME280;22716;51.556;5.080;2023-01-30T01:46:34;101044.69;;;5.97;100.00
36748;BME280;22716;51.556;5.080;2023-01-30T01:49:10;101036.06;;;6.03;100.00
36748;BME280;22716;51.556;5.080;2023-01-30T01:51:47;101036.97;;;6.06;100.00
36748;BME280;22716;51.556;5.080;2023-01-30T01:54:24;101033.56;;;6.10;100.00
36748;BME280;22716;51.556;5.080;2023-01-30T01:56:55;101026.66;;;6.12;100.00
36748;BME280;22716;51.556;5.080;2023-01-30T01:59:28;101023.19;;;6.16;100.00
36748;BME280;22716;51.556;5.080;2023-01-30T02:02:02;101040.59;;;6.19;100.00
36748;BME280;22716;51.556;5.080;2023-01-30T02:04:34;101035.44;;;6.22;100.00
36748;BME280;22716;51.556;5.080;2023-01-30T02:07:20;101042.38;;;6.26;100.00
36748;BME280;22716;51.556;5.080;2023-01-30T02:09:49;101030.25;;;6.27;100.00
36748;BME280;22716;51.556;5.080;2023-01-30T02:12:19;100992.91;;;6.23;100.00
36748;BME280;22716;51.556;5.080;2023-01-30T02:14:48;101004.31;;;6.36;100.00
36748;BME280;22716;51.556;5.080;2023-01-30T02:17:18;101014.75;;;6.39;100.00
36748;BME280;22716;51.556;5.080;2023-01-30T02:19:51;101005.19;;;6.36;100.00
36748;BME280;22716;51.556;5.080;2023-01-30T02:25:43;101006.94;;;6.36;100.00
36748;BME280;22716;51.556;5.080;2023-01-30T02:28:35;101011.31;;;6.40;100.00
36748;BME280;22716;51.556;5.080;2023-01-30T02:31:26;100999.16;;;6.39;100.00
36748;BME280;22716;51.556;5.080;2023-01-30T02:34:10;101005.25;;;6.44;100.00
36748;BME280;22716;51.556;5.080;2023-01-30T02:36:50;101010.44;;;6.41;100.00
36748;BME280;22716;51.556;5.080;2023-01-30T02:39:35;101008.69;;;6.38;100.00
36748;BME280;22716;51.556;5.080;2023-01-30T02:42:10;100999.19;;;6.45;100.00
36748;BME280;22716;51.556;5.080;2023-01-30T02:44:47;101005.31;;;6.48;100.00
36748;BME280;22716;51.556;5.080;2023-01-30T02:47:24;101000.06;;;6.47;100.00
36748;BME280;22716;51.556;5.080;2023-01-30T02:49:59;100997.50;;;6.50;100.00
36748;BME280;22716;51.556;5.080;2023-01-30T02:52:30;100997.53;;;6.53;100.00
36748;BME280;22716;51.556;5.080;2023-01-30T02:55:06;100994.06;;;6.55;100.00
36748;BME280;22716;51.556;5.080;2023-01-30T02:57:36;100988.00;;;6.55;100.00
36748;BME280;22716;51.556;5.080;2023-01-30T03:00:06;100988.91;;;6.57;100.00
36748;BME280;22716;51.556;5.080;2023-01-30T03:03:05;100992.38;;;6.59;100.00
36748;BME280;22716;51.556;5.080;2023-01-30T03:05:47;100987.16;;;6.59;100.00
36748;BME280;22716;51.556;5.080;2023-01-30T03:08:27;100992.38;;;6.59;100.00
36748;BME280;22716;51.556;5.080;2023-01-30T03:11:01;100994.09;;;6.58;100.00
36748;BME280;22716;51.556;5.080;2023-01-30T03:13:43;100977.56;;;6.52;100.00
36748;BME280;22716;51.556;5.080;2023-01-30T03:16:19;100978.44;;;6.51;100.00
36748;BME280;22716;51.556;5.080;2023-01-30T03:18:52;100972.31;;;6.49;100.00
36748;BME280;22716;51.556;5.080;2023-01-30T03:21:21;100975.81;;;6.49;100.00
36748;BME280;22716;51.556;5.080;2023-01-30T03:23:50;100961.84;;;6.41;100.00
36748;BME280;22716;51.556;5.080;2023-01-30T03:26:23;100972.31;;;6.47;100.00
36748;BME280;22716;51.556;5.080;2023-01-30T03:28:53;100970.56;;;6.46;100.00
36748;BME280;22716;51.556;5.080;2023-01-30T03:31:21;100964.50;;;6.43;100.00
36748;BME280;22716;51.556;5.080;2023-01-30T03:33:53;100956.69;;;6.44;100.00
36748;BME280;22716;51.556;5.080;2023-01-30T03:36:21;100963.63;;;6.47;100.00
36748;BME280;22716;51.556;5.080;2023-01-30T03:38:51;100959.31;;;6.46;100.00
36748;BME280;22716;51.556;5.080;2023-01-30T03:41:20;100957.56;;;6.46;100.00
36748;BME280;22716;51.556;5.080;2023-01-30T03:43:48;100965.34;;;6.43;100.00
36748;BME280;22716;51.556;5.080;2023-01-30T03:46:17;100965.31;;;6.39;100.00
36748;BME280;22716;51.556;5.080;2023-01-30T03:48:46;100964.53;;;6.46;100.00
36748;BME280;22716;51.556;5.080;2023-01-30T03:51:17;100941.91;;;6.43;100.00
36748;BME280;22716;51.556;5.080;2023-01-30T03:53:46;100963.66;;;6.48;100.00
36748;BME280;22716;51.556;5.080;2023-01-30T03:56:14;100960.13;;;6.42;100.00
36748;BME280;22716;51.556;5.080;2023-01-30T03:58:43;100961.03;;;6.47;100.00
36748;BME280;22716;51.556;5.080;2023-01-30T04:01:12;100968.84;;;6.45;100.00
36748;BME280;22716;51.556;5.080;2023-01-30T04:03:40;100950.56;;;6.41;100.00
36748;BME280;22716;51.556;5.080;2023-01-30T04:06:09;100943.59;;;6.34;100.00
36748;BME280;22716;51.556;5.080;2023-01-30T04:08:40;100962.75;;;6.42;100.00
36748;BME280;22716;51.556;5.080;2023-01-30T04:11:09;100973.22;;;6.51;100.00
36748;BME280;22716;51.556;5.080;2023-01-30T04:13:38;100966.28;;;6.53;100.00
36748;BME280;22716;51.556;5.080;2023-01-30T04:16:14;100955.84;;;6.50;100.00
36748;BME280;22716;51.556;5.080;2023-01-30T04:18:43;100955.00;;;6.51;100.00
36748;BME280;22716;51.556;5.080;2023-01-30T04:21:13;100941.13;;;6.50;100.00
36748;BME280;22716;51.556;5.080;2023-01-30T04:23:44;100922.88;;;6.50;100.00
36748;BME280;22716;51.556;5.080;2023-01-30T04:26:13;100920.22;;;6.41;100.00
36748;BME280;22716;51.556;5.080;2023-01-30T04:28:42;100933.31;;;6.55;100.00
36748;BME280;22716;51.556;5.080;2023-01-30T04:31:12;100945.50;;;6.56;100.00
36748;BME280;22716;51.556;5.080;2023-01-30T04:33:40;100937.66;;;6.51;100.00
36748;BME280;22716;51.556;5.080;2023-01-30T04:36:10;100947.28;;;6.60;100.00
36748;BME280;22716;51.556;5.080;2023-01-30T04:38:40;100937.72;;;6.63;100.00
36748;BME280;22716;51.556;5.080;2023-01-30T04:41:11;100938.63;;;6.65;100.00
36748;BME280;22716;51.556;5.080;2023-01-30T04:43:40;100929.06;;;6.64;100.00
36748;BME280;22716;51.556;5.080;2023-01-30T04:46:09;100937.75;;;6.69;100.00
36748;BME280;22716;51.556;5.080;2023-01-30T04:48:37;100921.22;;;6.57;100.00
36748;BME280;22716;51.556;5.080;2023-01-30T04:51:07;100941.28;;;6.74;100.00
36748;BME280;22716;51.556;5.080;2023-01-30T04:53:35;100950.88;;;6.80;100.00
36748;BME280;22716;51.556;5.080;2023-01-30T04:56:06;100957.81;;;6.84;100.00
36748;BME280;22716;51.556;5.080;2023-01-30T04:58:37;100942.19;;;6.84;100.00
36748;BME280;22716;51.556;5.080;2023-01-30T05:01:14;100963.09;;;6.89;100.00
36748;BME280;22716;51.556;5.080;2023-01-30T05:03:43;100960.47;;;6.90;100.00
36748;BME280;22716;51.556;5.080;2023-01-30T05:06:12;100975.25;;;6.91;100.00
36748;BME280;22716;51.556;5.080;2023-01-30T05:08:40;100962.25;;;6.94;100.00
36748;BME280;22716;51.556;5.080;2023-01-30T05:11:09;100970.97;;;6.98;100.00
36748;BME280;22716;51.556;5.080;2023-01-30T05:13:40;100972.69;;;7.00;100.00
36748;BME280;22716;51.556;5.080;2023-01-30T05:16:10;100970.97;;;7.01;100.00
36748;BME280;22716;51.556;5.080;2023-01-30T05:18:39;100979.66;;;7.03;100.00
36748;BME280;22716;51.556;5.080;2023-01-30T05:21:09;100976.19;;;7.05;100.00
36748;BME280;22716;51.556;5.080;2023-01-30T05:23:38;100973.59;;;7.05;100.00
36748;BME280;22716;51.556;5.080;2023-01-30T05:26:08;100972.75;;;7.06;100.00
36748;BME280;22716;51.556;5.080;2023-01-30T05:28:36;100957.09;;;7.06;100.00
36748;BME280;22716;51.556;5.080;2023-01-30T05:31:10;100967.56;;;7.14;100.00
36748;BME280;22716;51.556;5.080;2023-01-30T05:33:39;100961.47;;;7.13;100.00
36748;BME280;22716;51.556;5.080;2023-01-30T05:36:14;100963.25;;;7.17;100.00
36748;BME280;22716;51.556;5.080;2023-01-30T05:38:43;100938.00;;;7.09;100.00
36748;BME280;22716;51.556;5.080;2023-01-30T05:41:14;100949.34;;;7.15;100.00
36748;BME280;22716;51.556;5.080;2023-01-30T05:43:47;100949.38;;;7.18;100.00
36748;BME280;22716;51.556;5.080;2023-01-30T05:46:18;100941.53;;;7.15;100.00
36748;BME280;22716;51.556;5.080;2023-01-30T05:48:47;100943.25;;;7.19;100.00
36748;BME280;22716;51.556;5.080;2023-01-30T05:51:18;100948.50;;;7.21;100.00
36748;BME280;22716;51.556;5.080;2023-01-30T05:53:47;100948.50;;;7.22;100.00
36748;BME280;22716;51.556;5.080;2023-01-30T05:56:17;100969.34;;;7.25;100.00
36748;BME280;22716;51.556;5.080;2023-01-30T05:58:50;100968.50;;;7.26;100.00
36748;BME280;22716;51.556;5.080;2023-01-30T06:01:22;100977.19;;;7.28;100.00
36748;BME280;22716;51.556;5.080;2023-01-30T06:03:52;100973.72;;;7.26;100.00
36748;BME280;22716;51.556;5.080;2023-01-30T06:06:21;100984.16;;;7.29;100.00
36748;BME280;22716;51.556;5.080;2023-01-30T06:08:52;100977.22;;;7.31;100.00
36748;BME280;22716;51.556;5.080;2023-01-30T06:11:22;100988.50;;;7.29;100.00
36748;BME280;22716;51.556;5.080;2023-01-30T06:13:51;100998.03;;;7.25;100.00
36748;BME280;22716;51.556;5.080;2023-01-30T06:16:23;100997.19;;;7.25;100.00
36748;BME280;22716;51.556;5.080;2023-01-30T06:18:51;101021.50;;;7.28;100.00
36748;BME280;22716;51.556;5.080;2023-01-30T06:21:20;100982.34;;;7.19;100.00
36748;BME280;22716;51.556;5.080;2023-01-30T06:23:51;101008.44;;;7.22;100.00
36748;BME280;22716;51.556;5.080;2023-01-30T06:26:19;101011.91;;;7.21;100.00
36748;BME280;22716;51.556;5.080;2023-01-30T06:28:48;101000.59;;;7.15;100.00
36748;BME280;22716;51.556;5.080;2023-01-30T06:31:17;101029.22;;;7.13;100.00
36748;BME280;22716;51.556;5.080;2023-01-30T06:33:48;101036.16;;;7.11;100.00
36748;BME280;22716;51.556;5.080;2023-01-30T06:36:17;101023.06;;;7.02;100.00
36748;BME280;22716;51.556;5.080;2023-01-30T06:38:46;101016.16;;;7.06;100.00
36748;BME280;22716;51.556;5.080;2023-01-30T06:41:14;101018.78;;;7.04;100.00
36748;BME280;22716;51.556;5.080;2023-01-30T06:43:43;100995.22;;;6.89;100.00
36748;BME280;22716;51.556;5.080;2023-01-30T06:46:12;101007.34;;;6.87;100.00
36748;BME280;22716;51.556;5.080;2023-01-30T06:48:40;101023.00;;;6.93;100.00
36748;BME280;22716;51.556;5.080;2023-01-30T06:51:12;101029.94;;;6.90;100.00
36748;BME280;22716;51.556;5.080;2023-01-30T06:53:41;101027.31;;;6.87;100.00
36748;BME280;22716;51.556;5.080;2023-01-30T06:56:09;101033.38;;;6.86;100.00
36748;BME280;22716;51.556;5.080;2023-01-30T06:58:38;101009.91;;;6.80;100.00
36748;BME280;22716;51.556;5.080;2023-01-30T07:01:07;101014.22;;;6.79;100.00
36748;BME280;22716;51.556;5.080;2023-01-30T07:03:36;101004.69;;;6.78;100.00
36748;BME280;22716;51.556;5.080;2023-01-30T07:06:05;101011.59;;;6.76;100.00
36748;BME280;22716;51.556;5.080;2023-01-30T07:08:36;101013.31;;;6.72;100.00
36748;BME280;22716;51.556;5.080;2023-01-30T07:11:05;101024.59;;;6.71;100.00
36748;BME280;22716;51.556;5.080;2023-01-30T07:13:35;101026.25;;;6.66;100.00
36748;BME280;22716;51.556;5.080;2023-01-30T07:16:04;101026.28;;;6.65;100.00
36748;BME280;22716;51.556;5.080;2023-01-30T07:18:33;101027.13;;;6.62;100.00
36748;BME280;22716;51.556;5.080;2023-01-30T07:21:02;101041.84;;;6.59;100.00
36748;BME280;22716;51.556;5.080;2023-01-30T07:23:30;101051.34;;;6.55;100.00
36748;BME280;22716;51.556;5.080;2023-01-30T07:26:05;101039.16;;;6.50;100.00
36748;BME280;22716;51.556;5.080;2023-01-30T07:28:34;101051.28;;;6.49;100.00
36748;BME280;22716;51.556;5.080;2023-01-30T07:31:03;101034.72;;;6.40;100.00
36748;BME280;22716;51.556;5.080;2023-01-30T07:33:32;101050.41;;;6.47;100.00
36748;BME280;22716;51.556;5.080;2023-01-30T07:36:01;101041.63;;;6.38;100.00
36748;BME280;22716;51.556;5.080;2023-01-30T07:38:29;101061.63;;;6.43;100.00
36748;BME280;22716;51.556;5.080;2023-01-30T07:40:58;101066.84;;;6.42;100.00
36748;BME280;22716;51.556;5.080;2023-01-30T07:43:29;101051.09;;;6.30;100.00
36748;BME280;22716;51.556;5.080;2023-01-30T07:45:59;101059.84;;;6.36;100.00
36748;BME280;22716;51.556;5.080;2023-01-30T07:48:28;101065.06;;;6.38;100.00
36748;BME280;22716;51.556;5.080;2023-01-30T07:50:57;101065.94;;;6.37;100.00
36748;BME280;22716;51.556;5.080;2023-01-30T07:53:26;101060.72;;;6.37;100.00
36748;BME280;22716;51.556;5.080;2023-01-30T07:55:54;101065.91;;;6.35;100.00
36748;BME280;22716;51.556;5.080;2023-01-30T07:58:24;101070.22;;;6.33;100.00
36748;BME280;22716;51.556;5.080;2023-01-30T08:00:56;101070.22;;;6.35;100.00
36748;BME280;22716;51.556;5.080;2023-01-30T08:03:25;101051.06;;;6.27;100.00
36748;BME280;22716;51.556;5.080;2023-01-30T08:05:54;101060.69;;;6.35;100.00
36748;BME280;22716;51.556;5.080;2023-01-30T08:08:22;101067.66;;;6.36;100.00
36748;BME280;22716;51.556;5.080;2023-01-30T08:10:51;101055.47;;;6.31;100.00
36748;BME280;22716;51.556;5.080;2023-01-30T08:13:20;101083.34;;;6.44;100.00
36748;BME280;22716;51.556;5.080;2023-01-30T08:15:49;101070.25;;;6.38;100.00
36748;BME280;22716;51.556;5.080;2023-01-30T08:18:20;101045.84;;;6.24;100.00
36748;BME280;22716;51.556;5.080;2023-01-30T08:20:49;101085.09;;;6.45;100.00
36748;BME280;22716;51.556;5.080;2023-01-30T08:23:18;101099.03;;;6.48;100.00
36748;BME280;22716;51.556;5.080;2023-01-30T08:25:46;101119.84;;;6.50;100.00
36748;BME280;22716;51.556;5.080;2023-01-30T08:28:15;101107.72;;;6.52;100.00
36748;BME280;22716;51.556;5.080;2023-01-30T08:30:44;101098.09;;;6.46;100.00
36748;BME280;22716;51.556;5.080;2023-01-30T08:33:13;101104.31;;;6.57;100.00
36748;BME280;22716;51.556;5.080;2023-01-30T08:35:45;101110.41;;;6.61;100.00
36748;BME280;22716;51.556;5.080;2023-01-30T08:38:14;101101.69;;;6.56;100.00
36748;BME280;22716;51.556;5.080;2023-01-30T08:40:43;101100.03;;;6.62;100.00
36748;BME280;22716;51.556;5.080;2023-01-30T08:43:12;101110.47;;;6.67;100.00
36748;BME280;22716;51.556;5.080;2023-01-30T08:45:41;101114.81;;;6.68;100.00
36748;BME280;22716;51.556;5.080;2023-01-30T08:48:09;101102.63;;;6.62;100.00
36748;BME280;22716;51.556;5.080;2023-01-30T08:50:38;101094.88;;;6.70;100.00
36748;BME280;22716;51.556;5.080;2023-01-30T08:53:10;101087.91;;;6.66;100.00
36748;BME280;22716;51.556;5.080;2023-01-30T08:55:38;101113.22;;;6.81;100.00
36748;BME280;22716;51.556;5.080;2023-01-30T08:58:07;101134.06;;;6.82;100.00
36748;BME280;22716;51.556;5.080;2023-01-30T09:00:36;101121.03;;;6.82;100.00
36748;BME280;22716;51.556;5.080;2023-01-30T09:03:09;101127.16;;;6.90;100.00
36748;BME280;22716;51.556;5.080;2023-01-30T09:05:38;101138.50;;;6.92;100.00
36748;BME280;22716;51.556;5.080;2023-01-30T09:08:09;101124.59;;;6.92;100.00
36748;BME280;22716;51.556;5.080;2023-01-30T09:10:38;101130.69;;;6.94;100.00
36748;BME280;22716;51.556;5.080;2023-01-30T09:13:08;101140.25;;;6.96;100.00
36748;BME280;22716;51.556;5.080;2023-01-30T09:15:40;101128.13;;;6.95;100.00
36748;BME280;22716;51.556;5.080;2023-01-30T09:18:10;101129.00;;;7.00;100.00
36748;BME280;22716;51.556;5.080;2023-01-30T09:20:38;101138.59;;;7.06;100.00
36748;BME280;22716;51.556;5.080;2023-01-30T09:23:10;101141.19;;;7.03;100.00
36748;BME280;22716;51.556;5.080;2023-01-30T09:25:38;101160.34;;;7.06;100.00
36748;BME280;22716;51.556;5.080;2023-01-30T09:28:07;101156.03;;;7.11;100.00
36748;BME280;22716;51.556;5.080;2023-01-30T09:30:36;101154.31;;;7.16;100.00
36748;BME280;22716;51.556;5.080;2023-01-30T09:33:05;101153.47;;;7.17;100.00
36748;BME280;22716;51.556;5.080;2023-01-30T09:35:33;101150.91;;;7.19;100.00
36748;BME280;22716;51.556;5.080;2023-01-30T09:38:02;101164.81;;;7.25;100.00
36748;BME280;22716;51.556;5.080;2023-01-30T09:40:37;101170.03;;;7.24;100.00
36748;BME280;22716;51.556;5.080;2023-01-30T09:43:17;101182.28;;;7.36;100.00
36748;BME280;22716;51.556;5.080;2023-01-30T09:46:02;101192.72;;;7.36;100.00
36748;BME280;22716;51.556;5.080;2023-01-30T09:48:41;101182.28;;;7.36;100.00
36748;BME280;22716;51.556;5.080;2023-01-30T09:51:34;101183.16;;;7.34;100.00
36748;BME280;22716;51.556;5.080;2023-01-30T09:54:15;101179.63;;;7.29;100.00
36748;BME280;22716;51.556;5.080;2023-01-30T09:56:57;101193.59;;;7.38;100.00
36748;BME280;22716;51.556;5.080;2023-01-30T09:59:41;101192.75;;;7.39;100.00
36748;BME280;22716;51.556;5.080;2023-01-30T10:02:30;101187.53;;;7.40;100.00
36748;BME280;22716;51.556;5.080;2023-01-30T10:05:03;101193.69;;;7.45;100.00
36748;BME280;22716;51.556;5.080;2023-01-30T10:07:43;101186.75;;;7.50;100.00
36748;BME280;22716;51.556;5.080;2023-01-30T10:10:20;101183.25;;;7.50;100.00
36748;BME280;22716;51.556;5.080;2023-01-30T10:13:00;101180.72;;;7.56;100.00
36748;BME280;22716;51.556;5.080;2023-01-30T10:15:45;101203.31;;;7.57;100.00
36748;BME280;22716;51.556;5.080;2023-01-30T10:18:40;101201.59;;;7.59;100.00
36748;BME280;22716;51.556;5.080;2023-01-30T10:21:19;101219.88;;;7.63;100.00
36748;BME280;22716;51.556;5.080;2023-01-30T10:24:14;101218.16;;;7.67;100.00
36748;BME280;22716;51.556;5.080;2023-01-30T10:26:46;101216.44;;;7.67;100.00
36748;BME280;22716;51.556;5.080;2023-01-30T10:29:21;101217.31;;;7.68;100.00
36748;BME280;22716;51.556;5.080;2023-01-30T10:31:56;101212.03;;;7.62;100.00
36748;BME280;22716;51.556;5.080;2023-01-30T10:34:30;101211.16;;;7.61;100.00
36748;BME280;22716;51.556;5.080;2023-01-30T10:37:02;101219.91;;;7.65;100.00
36748;BME280;22716;51.556;5.080;2023-01-30T10:39:38;101221.63;;;7.63;100.00
36748;BME280;22716;51.556;5.080;2023-01-30T10:42:10;101240.75;;;7.65;100.00
36748;BME280;22716;51.556;5.080;2023-01-30T10:44:42;101241.56;;;7.58;100.00
36748;BME280;22716;51.556;5.080;2023-01-30T10:47:30;101251.13;;;7.59;100.00
36748;BME280;22716;51.556;5.080;2023-01-30T10:50:12;101240.75;;;7.65;100.00
36748;BME280;22716;51.556;5.080;2023-01-30T10:52:48;101233.78;;;7.64;100.00
36748;BME280;22716;51.556;5.080;2023-01-30T10:55:28;101239.88;;;7.63;100.00
36748;BME280;22716;51.556;5.080;2023-01-30T10:58:04;101252.91;;;7.64;100.00
36748;BME280;22716;51.556;5.080;2023-01-30T11:00:42;101250.28;;;7.61;100.00
36748;BME280;22716;51.556;5.080;2023-01-30T11:03:20;101262.47;;;7.62;100.00
36748;BME280;22716;51.556;5.080;2023-01-30T11:05:50;101247.72;;;7.63;100.00
36748;BME280;22716;51.556;5.080;2023-01-30T11:08:22;101238.97;;;7.61;100.00
36748;BME280;22716;51.556;5.080;2023-01-30T11:10:54;101255.53;;;7.63;100.00
36748;BME280;22716;51.556;5.080;2023-01-30T11:13:27;101250.34;;;7.66;100.00
36748;BME280;22716;51.556;5.080;2023-01-30T11:16:04;101223.28;;;7.53;100.00
36748;BME280;22716;51.556;5.080;2023-01-30T11:18:43;101239.91;;;7.67;100.00
36748;BME280;22716;51.556;5.080;2023-01-30T11:21:19;101239.91;;;7.66;100.00
36748;BME280;22716;51.556;5.080;2023-01-30T11:23:50;101246.00;;;7.69;100.00
36748;BME280;22716;51.556;5.080;2023-01-30T11:26:22;101225.13;;;7.69;100.00
36748;BME280;22716;51.556;5.080;2023-01-30T11:28:51;101242.50;;;7.67;100.00
36748;BME280;22716;51.556;5.080;2023-01-30T11:31:26;101251.22;;;7.72;100.00
36748;BME280;22716;51.556;5.080;2023-01-30T11:33:59;101238.16;;;7.68;100.00
36748;BME280;22716;51.556;5.080;2023-01-30T11:36:30;101252.13;;;7.74;100.00
36748;BME280;22716;51.556;5.080;2023-01-30T11:39:01;101260.00;;;7.79;100.00
36748;BME280;22716;51.556;5.080;2023-01-30T11:41:30;101259.13;;;7.77;100.00
36748;BME280;22716;51.556;5.080;2023-01-30T11:44:00;101258.25;;;7.81;99.68
36748;BME280;22716;51.556;5.080;2023-01-30T11:46:34;101239.94;;;7.69;99.40
36748;BME280;22716;51.556;5.080;2023-01-30T11:49:09;101260.84;;;7.81;99.58
36748;BME280;22716;51.556;5.080;2023-01-30T11:51:43;101262.63;;;7.85;99.66
36748;BME280;22716;51.556;5.080;2023-01-30T11:54:14;101265.28;;;7.88;99.67
36748;BME280;22716;51.556;5.080;2023-01-30T11:56:49;101251.34;;;7.86;98.81
36748;BME280;22716;51.556;5.080;2023-01-30T11:59:24;101257.44;;;7.86;98.56
36748;BME280;22716;51.556;5.080;2023-01-30T12:02:04;101254.88;;;7.89;98.59
36748;BME280;22716;51.556;5.080;2023-01-30T12:04:42;101251.38;;;7.89;98.63
36748;BME280;22716;51.556;5.080;2023-01-30T12:07:21;101259.25;;;7.95;98.43
36748;BME280;22716;51.556;5.080;2023-01-30T12:09:50;101263.56;;;7.93;98.13
36748;BME280;22716;51.556;5.080;2023-01-30T12:12:28;101247.03;;;7.91;97.90
36748;BME280;22716;51.556;5.080;2023-01-30T12:15:04;101250.47;;;7.85;97.67
36748;BME280;22716;51.556;5.080;2023-01-30T12:17:43;101246.16;;;7.90;97.38
36748;BME280;22716;51.556;5.080;2023-01-30T12:20:18;101247.03;;;7.89;97.97
36748;BME280;22716;51.556;5.080;2023-01-30T12:22:57;101251.41;;;7.92;98.08
36748;BME280;22716;51.556;5.080;2023-01-30T12:25:32;101266.19;;;7.96;98.28
36748;BME280;22716;51.556;5.080;2023-01-30T12:28:12;101260.13;;;7.99;98.44
36748;BME280;22716;51.556;5.080;2023-01-30T12:30:44;101260.13;;;7.97;97.95
36748;BME280;22716;51.556;5.080;2023-01-30T12:33:19;101252.28;;;7.99;98.13
36748;BME280;22716;51.556;5.080;2023-01-30T12:36:07;101257.59;;;8.09;98.29
36748;BME280;22716;51.556;5.080;2023-01-30T12:38:51;101268.88;;;8.07;97.78
36748;BME280;22716;51.556;5.080;2023-01-30T12:41:37;101280.19;;;8.10;97.89
36748;BME280;22716;51.556;5.080;2023-01-30T12:47:27;101284.63;;;8.19;97.54
36748;BME280;22716;51.556;5.080;2023-01-30T12:50:16;101280.22;;;8.12;96.74
36748;BME280;22716;51.556;5.080;2023-01-30T12:53:08;101289.78;;;8.11;96.54
36748;BME280;22716;51.556;5.080;2023-01-30T12:55:48;101287.22;;;8.16;96.95
36748;BME280;22716;51.556;5.080;2023-01-30T12:58:22;101290.72;;;8.18;96.73
36748;BME280;22716;51.556;5.080;2023-01-30T13:01:05;101299.47;;;8.24;96.77
36748;BME280;22716;51.556;5.080;2023-01-30T13:03:44;101299.41;;;8.15;96.29
36748;BME280;22716;51.556;5.080;2023-01-30T13:06:30;101278.38;;;7.97;95.81
36748;BME280;22716;51.556;5.080;2023-01-30T13:09:13;101301.94;;;8.08;95.94
36748;BME280;22716;51.556;5.080;2023-01-30T13:11:53;101308.91;;;8.10;96.12
36748;BME280;22716;51.556;5.080;2023-01-30T13:14:30;101281.88;;;7.99;96.15
36748;BME280;22716;51.556;5.080;2023-01-30T13:17:12;101301.09;;;8.07;96.29
36748;BME280;22716;51.556;5.080;2023-01-30T13:19:47;101295.84;;;8.06;96.45
36748;BME280;22716;51.556;5.080;2023-01-30T13:22:26;101305.44;;;8.10;96.67
36748;BME280;22716;51.556;5.080;2023-01-30T13:25:02;101308.97;;;8.15;96.71